createdAt,value
2023-03-22T00:01:37.706Z,100193.31
2023-03-22T00:04:04.587Z,100185.34
2023-03-22T00:06:31.343Z,100187.16
2023-03-22T00:08:57.989Z,100170.00
2023-03-22T00:11:25.795Z,100173.94
2023-03-22T00:13:53.663Z,100167.91
2023-03-22T00:16:21.909Z,100171.53
2023-03-22T00:18:49.014Z,100165.00
2023-03-22T00:21:17.063Z,100153.06
2023-03-22T00:23:44.916Z,100157.03
2023-03-22T00:26:13.505Z,100164.88
2023-03-22T00:28:41.599Z,100164.41
2023-03-22T00:31:08.663Z,100165.56
2023-03-22T00:33:36.637Z,100158.84
2023-03-22T00:36:09.083Z,100162.31
2023-03-22T00:38:43.696Z,100155.16
2023-03-22T00:41:16.166Z,100148.41
2023-03-22T00:43:45.213Z,100142.38
2023-03-22T00:46:13.456Z,100142.72
2023-03-22T00:48:40.694Z,100136.38
2023-03-22T00:51:08.807Z,100140.75
2023-03-22T00:53:37.198Z,100135.06
2023-03-22T00:56:07.313Z,100134.28
2023-03-22T00:58:47.964Z,100121.66
2023-03-22T01:01:15.115Z,100121.97
2023-03-22T01:03:43.454Z,100119.19
2023-03-22T01:06:13.569Z,100120.81
2023-03-22T01:08:40.265Z,100117.59
2023-03-22T01:11:08.293Z,100112.72
2023-03-22T01:13:39.455Z,100111.09
2023-03-22T01:16:07.400Z,100101.59
2023-03-22T01:18:35.103Z,100104.69
2023-03-22T01:21:02.379Z,100096.72
2023-03-22T01:23:29.904Z,100095.09
2023-03-22T01:25:56.750Z,100092.16
2023-03-22T01:28:26.427Z,100086.97
2023-03-22T01:30:54.623Z,100082.22
2023-03-22T01:33:22.108Z,100078.63
2023-03-22T01:35:49.597Z,100085.34
2023-03-22T01:38:16.597Z,100078.16
2023-03-22T01:40:52.207Z,100079.31
2023-03-22T01:43:19.636Z,100065.41
2023-03-22T01:45:48.980Z,100062.19
2023-03-22T01:48:37.591Z,100057.31
2023-03-22T01:51:18.618Z,100064.47
2023-03-22T01:54:04.109Z,100056.63
2023-03-22T01:56:35.668Z,100058.91
2023-03-22T01:59:04.324Z,100054.53
2023-03-22T02:01:50.897Z,100047.78
2023-03-22T02:04:23.849Z,100042.91
2023-03-22T02:06:54.498Z,100041.31
2023-03-22T02:09:22.847Z,100031.34
2023-03-22T02:12:06.911Z,100024.63
2023-03-22T02:14:43.877Z,100024.63
2023-03-22T02:17:59.782Z,100012.56
2023-03-22T02:20:40.081Z,100017.44
2023-03-22T02:23:27.891Z,100024.81
2023-03-22T02:26:43.973Z,100020.22
2023-03-22T02:29:38.562Z,100013.03
2023-03-22T02:32:08.135Z,100020.56
2023-03-22T02:35:01.598Z,100014.53
2023-03-22T02:37:49.242Z,100022.06
2023-03-22T02:40:33.102Z,100014.88
2023-03-22T02:43:08.846Z,100016.50
2023-03-22T02:46:03.966Z,100017.66
2023-03-22T02:48:49.434Z,100023.69
2023-03-22T02:51:29.764Z,100017.66
2023-03-22T02:54:03.454Z,100015.56
2023-03-22T02:56:39.274Z,100012.44
2023-03-22T02:59:11.946Z,100005.28
2023-03-22T03:01:44.472Z,99998.91
2023-03-22T03:04:17.475Z,100002.81
2023-03-22T03:06:47.639Z,100006.78
2023-03-22T03:09:18.208Z,100005.16
2023-03-22T03:11:51.425Z,100001.91
2023-03-22T03:14:30.414Z,99999.59
2023-03-22T03:17:21.845Z,99994.03
2023-03-22T03:19:57.238Z,100007.91
2023-03-22T03:22:38.488Z,99996.34
2023-03-22T03:25:43.339Z,100000.28
2023-03-22T03:28:30.130Z,99998.31
2023-03-22T03:30:56.928Z,99997.50
2023-03-22T03:33:26.361Z,99989.72
2023-03-22T03:35:59.771Z,99984.97
2023-03-22T03:38:30.367Z,99984.97
2023-03-22T03:41:10.012Z,99982.66
2023-03-22T03:43:37.854Z,99979.41
2023-03-22T03:46:07.045Z,99978.72
2023-03-22T03:48:35.719Z,99973.84
2023-03-22T03:51:03.046Z,99969.44
2023-03-22T03:53:30.658Z,99966.22
2023-03-22T03:55:57.807Z,99957.19
2023-03-22T03:58:27.194Z,99963.88
2023-03-22T04:00:54.328Z,99970.63
2023-03-22T04:03:35.481Z,99971.78
2023-03-22T04:06:08.997Z,99969.69
2023-03-22T04:08:38.601Z,99972.13
2023-03-22T04:11:06.040Z,99968.84
2023-03-22T04:13:33.498Z,99964.13
2023-03-22T04:16:03.725Z,99968.06
2023-03-22T04:18:34.543Z,99970.84
2023-03-22T04:21:05.499Z,99972.78
2023-03-22T04:23:41.107Z,99966.41
2023-03-22T04:26:08.014Z,99965.28
2023-03-22T04:28:44.684Z,99964.78
2023-03-22T04:31:11.979Z,99965.59
2023-03-22T04:33:54.965Z,99957.63
2023-03-22T04:36:31.139Z,99963.50
2023-03-22T04:39:16.208Z,99955.97
2023-03-22T04:41:51.357Z,99954.34
2023-03-22T04:44:18.519Z,99959.91
2023-03-22T04:46:49.710Z,99965.47
2023-03-22T04:49:17.053Z,99955.03
2023-03-22T04:51:44.007Z,99965.38
2023-03-22T04:54:21.012Z,99973.34
2023-03-22T04:56:49.051Z,99964.56
2023-03-22T04:59:20.269Z,99961.28
2023-03-22T05:01:49.711Z,99959.69
2023-03-22T05:04:20.775Z,99958.84
2023-03-22T05:06:51.109Z,99968.00
2023-03-22T05:09:24.744Z,99965.22
2023-03-22T05:11:53.654Z,99959.69
2023-03-22T05:14:28.051Z,99954.13
2023-03-22T05:16:54.830Z,99962.78
2023-03-22T05:19:22.484Z,99953.63
2023-03-22T05:21:58.602Z,99960.38
2023-03-22T05:24:38.365Z,99954.00
2023-03-22T05:27:05.967Z,99956.41
2023-03-22T05:29:37.000Z,99952.72
2023-03-22T05:32:11.486Z,99954.00
2023-03-22T05:34:38.893Z,99957.13
2023-03-22T05:37:16.961Z,99959.41
2023-03-22T05:39:55.270Z,99964.97
2023-03-22T05:42:28.228Z,99961.06
2023-03-22T05:44:56.430Z,99959.41
2023-03-22T05:47:23.716Z,99961.72
2023-03-22T05:49:59.384Z,99976.09
2023-03-22T05:52:28.196Z,99970.75
2023-03-22T05:55:19.867Z,99970.41
2023-03-22T05:57:51.525Z,99967.97
2023-03-22T06:00:20.417Z,99962.41
2023-03-22T06:03:07.286Z,99963.09
2023-03-22T06:05:39.288Z,99953.63
2023-03-22T06:08:07.338Z,99962.41
2023-03-22T06:10:34.320Z,99958.00
2023-03-22T06:13:01.422Z,99960.78
2023-03-22T06:15:31.666Z,99949.22
2023-03-22T06:17:58.533Z,99965.56
2023-03-22T06:20:29.652Z,99965.41
2023-03-22T06:23:02.353Z,99957.09
2023-03-22T06:25:31.915Z,99960.56
2023-03-22T06:27:59.442Z,99960.56
2023-03-22T06:30:26.550Z,99977.22
2023-03-22T06:33:28.698Z,99964.47
2023-03-22T06:36:02.044Z,99970.03
2023-03-22T06:38:43.653Z,99973.97
2023-03-22T06:41:10.343Z,99973.63
2023-03-22T06:43:37.001Z,99968.75
2023-03-22T06:46:29.844Z,99972.34
2023-03-22T06:49:07.944Z,99986.56
2023-03-22T06:51:34.893Z,99984.13
2023-03-22T06:54:01.796Z,99984.13
2023-03-22T06:56:28.972Z,99984.81
2023-03-22T06:58:58.037Z,99982.50
2023-03-22T07:01:25.432Z,99978.13
2023-03-22T07:03:53.739Z,99978.13
2023-03-22T07:06:22.913Z,99980.91
2023-03-22T07:08:52.090Z,99980.91
2023-03-22T07:11:25.920Z,99978.13
2023-03-22T07:13:58.585Z,99975.34
2023-03-22T07:16:28.988Z,99980.06
2023-03-22T07:18:58.987Z,99977.63
2023-03-22T07:21:26.102Z,99980.41
2023-03-22T07:23:58.178Z,99981.56
2023-03-22T07:26:30.577Z,99981.56
2023-03-22T07:28:58.591Z,99985.50
2023-03-22T07:31:35.681Z,99986.63
2023-03-22T07:34:05.025Z,99984.22
2023-03-22T07:36:39.730Z,99982.25
2023-03-22T07:39:09.601Z,99987.00
2023-03-22T07:41:40.854Z,99992.53
2023-03-22T07:44:27.909Z,99979.81
2023-03-22T07:47:13.234Z,99980.63
2023-03-22T07:49:47.653Z,99992.09
2023-03-22T07:52:25.848Z,99987.66
2023-03-22T07:54:52.906Z,99997.97
2023-03-22T07:57:19.680Z,99993.09
2023-03-22T07:59:59.421Z,100000.28
2023-03-22T08:02:45.441Z,99999.09
2023-03-22T08:05:22.645Z,99988.34
2023-03-22T08:07:56.974Z,100001.41
2023-03-22T08:10:24.029Z,99993.91
2023-03-22T08:12:50.863Z,100000.59
2023-03-22T08:15:22.748Z,100000.94
2023-03-22T08:17:50.135Z,99995.41
2023-03-22T08:20:27.829Z,99998.19
2023-03-22T08:22:58.981Z,99991.47
2023-03-22T08:25:56.571Z,99996.53
2023-03-22T08:28:23.303Z,99984.28
2023-03-22T08:30:51.656Z,99988.22
2023-03-22T08:33:23.673Z,99977.47
2023-03-22T08:35:51.067Z,99982.34
2023-03-22T08:38:27.787Z,99978.75
2023-03-22T08:40:54.448Z,99976.78
2023-03-22T08:43:24.290Z,99984.28
2023-03-22T08:45:52.007Z,99985.94
2023-03-22T08:48:20.955Z,99983.84
2023-03-22T08:51:06.439Z,99989.66
2023-03-22T08:54:03.963Z,99980.13
2023-03-22T08:56:50.213Z,99982.81
2023-03-22T08:59:29.254Z,99985.13
2023-03-22T09:02:31.088Z,99980.59
2023-03-22T09:04:59.138Z,99979.91
2023-03-22T09:07:27.425Z,99987.78
2023-03-22T09:10:16.819Z,99978.28
2023-03-22T09:12:46.526Z,99969.13
2023-03-22T09:15:13.231Z,99972.50
2023-03-22T09:17:44.575Z,99971.00
2023-03-22T09:20:15.155Z,99971.56
2023-03-22T09:22:45.812Z,99976.91
2023-03-22T09:25:18.482Z,99966.13
2023-03-22T09:27:48.245Z,99975.28
2023-03-22T09:30:16.149Z,99980.34
2023-03-22T09:32:42.980Z,99986.84
2023-03-22T09:35:12.661Z,99978.72
2023-03-22T09:38:20.578Z,99968.31
2023-03-22T09:41:00.695Z,99985.66
2023-03-22T09:43:34.367Z,99975.22
2023-03-22T09:46:03.732Z,99969.69
2023-03-22T09:48:42.468Z,99971.97
2023-03-22T09:51:23.652Z,99969.19
2023-03-22T09:53:50.619Z,99970.34
2023-03-22T09:56:20.514Z,99957.63
2023-03-22T09:59:06.208Z,99955.16
2023-03-22T10:02:01.110Z,99964.66
2023-03-22T10:04:46.177Z,99958.31
2023-03-22T10:07:27.742Z,99956.66
2023-03-22T10:10:07.980Z,99953.44
2023-03-22T10:12:48.679Z,99942.31
2023-03-22T10:15:20.646Z,99935.13
2023-03-22T10:17:53.599Z,99939.06
2023-03-22T10:20:48.726Z,99941.84
2023-03-22T10:23:24.903Z,99940.22
2023-03-22T10:25:53.006Z,99941.03
2023-03-22T10:28:42.358Z,99942.19
2023-03-22T10:31:14.851Z,99944.59
2023-03-22T10:33:51.867Z,99943.00
2023-03-22T10:36:22.870Z,99941.50
2023-03-22T10:38:54.615Z,99945.50
2023-03-22T10:41:24.405Z,99950.59
2023-03-22T10:43:58.790Z,99946.78
2023-03-22T10:46:29.153Z,99946.09
2023-03-22T10:49:00.732Z,99935.88
2023-03-22T10:51:34.576Z,99936.13
2023-03-22T10:54:02.621Z,99931.47
2023-03-22T10:56:29.322Z,99925.72
2023-03-22T10:58:57.253Z,99922.47
2023-03-22T11:01:31.530Z,99936.59
2023-03-22T11:04:08.813Z,99932.97
2023-03-22T11:06:40.954Z,99926.84
2023-03-22T11:09:12.898Z,99934.28
2023-03-22T11:11:53.426Z,99930.56
2023-03-22T11:14:30.444Z,99931.25
2023-03-22T11:17:00.256Z,99934.84
2023-03-22T11:19:32.166Z,99929.16
2023-03-22T11:22:00.529Z,99923.84
2023-03-22T11:24:30.321Z,99924.53
2023-03-22T11:27:21.978Z,99917.22
2023-03-22T11:29:51.852Z,99917.38
2023-03-22T11:32:21.299Z,99914.31
2023-03-22T11:34:47.970Z,99918.72
2023-03-22T11:37:18.275Z,99909.91
2023-03-22T11:39:49.694Z,99912.91
2023-03-22T11:42:20.994Z,99907.34
2023-03-22T11:44:48.014Z,99909.66
2023-03-22T11:47:15.104Z,99911.19
2023-03-22T11:49:52.484Z,99904.81
2023-03-22T11:52:24.467Z,99911.03
2023-03-22T11:54:52.797Z,99902.25
2023-03-22T11:57:23.469Z,99900.25
2023-03-22T12:00:09.071Z,99905.38
2023-03-22T12:02:42.684Z,99902.25
2023-03-22T12:05:23.214Z,99901.31
2023-03-22T12:07:59.353Z,99899.69
2023-03-22T12:10:37.193Z,99903.63
2023-03-22T12:13:27.017Z,99896.44
2023-03-22T12:15:58.147Z,99889.25
2023-03-22T12:18:34.651Z,99892.84
2023-03-22T12:21:01.829Z,99889.25
2023-03-22T12:23:31.856Z,99891.25
2023-03-22T12:26:12.587Z,99887.66
2023-03-22T12:28:52.608Z,99882.91
2023-03-22T12:31:24.341Z,99883.25
2023-03-22T12:33:55.266Z,99883.25
2023-03-22T12:36:33.854Z,99880.47
2023-03-22T12:39:02.492Z,99884.38
2023-03-22T12:41:36.469Z,99882.78
2023-03-22T12:44:12.435Z,99871.69
2023-03-22T12:46:49.744Z,99878.38
2023-03-22T12:49:45.616Z,99879.56
2023-03-22T12:52:17.857Z,99875.59
2023-03-22T12:54:47.140Z,99874.00
2023-03-22T12:57:16.288Z,99874.78
2023-03-22T12:59:46.122Z,99870.75
2023-03-22T13:02:17.353Z,99872.38
2023-03-22T13:04:44.009Z,99865.19
2023-03-22T13:07:13.714Z,99873.50
2023-03-22T13:09:47.190Z,99876.28
2023-03-22T13:12:16.665Z,99871.91
2023-03-22T13:14:52.405Z,99873.50
2023-03-22T13:17:25.718Z,99878.25
2023-03-22T13:20:08.108Z,99878.59
2023-03-22T13:22:38.048Z,99871.41
2023-03-22T13:25:13.057Z,99864.72
2023-03-22T13:27:46.125Z,99862.28
2023-03-22T13:30:24.716Z,99861.94
2023-03-22T13:33:03.758Z,99862.28
2023-03-22T13:35:48.881Z,99843.66
2023-03-22T13:38:19.544Z,99849.22
2023-03-22T13:40:54.774Z,99851.53
2023-03-22T13:43:29.850Z,99841.25
2023-03-22T13:46:06.161Z,99840.06
2023-03-22T13:48:48.647Z,99840.41
2023-03-22T13:51:31.844Z,99842.06
2023-03-22T13:54:04.937Z,99836.81
2023-03-22T13:56:34.663Z,99835.69
2023-03-22T13:59:06.866Z,99844.34
2023-03-22T14:01:44.723Z,99837.97
2023-03-22T14:04:16.174Z,99848.28
2023-03-22T14:06:57.458Z,99841.09
2023-03-22T14:09:38.985Z,99848.28
2023-03-22T14:12:15.600Z,99841.09
2023-03-22T14:14:47.378Z,99833.94
2023-03-22T14:17:29.217Z,99842.25
2023-03-22T14:19:58.438Z,99837.19
